Time;durP1;ratioP1;P1;durP2;ratioP2;P2;SDS_P1;SDS_P2;PMS_P1;PMS_P2;Temp;Humidity;BMP_temperature;BMP_pressure;BME280_temperature;BME280_humidity;BME280_pressure;Samples;Min_cycle;Max_cycle;Signal;HPM_P1;HPM_P2
2022/10/09 00:00:06;;;;;;;889.88;828.05;;;;;;;10.78;69.33;101936.38;696662;28;67957;-61
2022/10/09 00:00:33;;;;;;;879.30;817.75;;;;;;;10.81;69.35;101936.06;693351;28;160378;-61
2022/10/09 00:01:01;;;;;;;876.72;815.13;;;;;;;10.80;69.67;101933.50;698228;28;22585;-62
2022/10/09 00:01:24;;;;;;;871.33;809.95;;;;;;;10.81;69.74;101937.91;694321;28;137416;-61
2022/10/09 00:01:46;;;;;;;878.15;816.50;;;;;;;10.79;69.54;101934.50;695781;28;91875;-61
2022/10/09 00:02:07;;;;;;;894.63;832.55;;;;;;;10.79;69.38;101940.75;697931;28;22600;-61
2022/10/09 00:02:28;;;;;;;893.33;831.22;;;;;;;10.80;69.55;101938.91;697826;28;22135;-62
2022/10/09 00:02:50;;;;;;;881.25;819.42;;;;;;;10.80;69.37;101938.91;697455;28;46030;-62
2022/10/09 00:03:12;;;;;;;879.42;817.70;;;;;;;10.80;69.72;101941.63;698278;28;23197;-61
2022/10/09 00:03:35;;;;;;;871.63;810.15;;;;;;;10.79;69.44;101938.03;696292;28;68915;-62
2022/10/09 00:03:57;;;;;;;859.85;798.78;;;;;;;10.79;69.83;101940.75;697379;28;46157;-62
2022/10/09 00:04:19;;;;;;;876.00;814.40;;;;;;;10.79;69.45;101939.91;696681;28;69966;-62
2022/10/09 00:04:40;;;;;;;889.33;827.33;;;;;;;10.79;69.54;101937.22;698439;28;22632;-62
2022/10/09 00:05:02;;;;;;;878.85;817.25;;;;;;;10.78;69.79;101939.06;698343;28;22629;-61
2022/10/09 00:05:25;;;;;;;874.08;812.55;;;;;;;10.78;69.84;101939.06;696734;28;69545;-62
2022/10/09 00:05:47;;;;;;;881.15;819.40;;;;;;;10.78;69.62;101943.59;694727;28;67434;-62
2022/10/09 00:06:09;;;;;;;882.03;820.33;;;;;;;10.79;69.81;101943.44;695527;28;23465;-61
2022/10/09 00:06:34;;;;;;;880.90;819.15;;;;;;;10.77;69.85;101942.75;693882;28;68890;-61
2022/10/09 00:06:55;;;;;;;871.20;809.70;;;;;;;10.77;69.74;101940.06;692823;28;91303;-62
2022/10/09 00:07:16;;;;;;;880.25;818.17;;;;;;;10.76;69.50;101938.34;694420;28;46039;-62
2022/10/09 00:07:43;;;;;;;867.70;806.35;;;;;;;10.75;69.59;101943.91;691614;28;138724;-62
2022/10/09 00:08:05;;;;;;;872.85;811.53;;;;;;;10.75;69.91;101939.38;695383;28;23474;-62
2022/10/09 00:08:26;;;;;;;873.78;812.38;;;;;;;10.75;69.71;101944.78;693472;28;69021;-62
2022/10/09 00:08:48;;;;;;;870.90;809.75;;;;;;;10.76;69.77;101951.84;695477;28;22028;-62
2022/10/09 00:09:09;;;;;;;879.13;817.58;;;;;;;10.75;69.39;101943.91;694632;28;46020;-62
2022/10/09 00:09:32;;;;;;;873.53;812.00;;;;;;;10.75;69.83;101938.50;697107;28;22226;-61
2022/10/09 00:09:54;;;;;;;887.67;825.72;;;;;;;10.75;69.79;101941.19;695712;28;68942;-61
2022/10/09 00:10:16;;;;;;;884.03;822.17;;;;;;;10.74;69.93;101945.75;697437;28;45499;-62
2022/10/09 00:10:39;;;;;;;874.50;813.10;;;;;;;10.73;69.74;101943.22;697524;28;46062;-61
2022/10/09 00:11:04;;;;;;;883.50;821.78;;;;;;;10.72;69.63;101953.16;695743;28;92200;-61
2022/10/09 00:11:28;;;;;;;888.40;826.45;;;;;;;10.72;69.76;101945.06;695113;28;114140;-62
2022/10/09 00:11:49;;;;;;;894.47;832.33;;;;;;;10.71;69.62;101948.75;695816;28;91856;-61
2022/10/09 00:12:10;;;;;;;870.85;809.40;;;;;;;10.70;69.92;101947.03;698219;28;22643;-62
2022/10/09 00:12:32;;;;;;;873.72;812.10;;;;;;;10.69;69.84;101953.47;697270;28;45466;-62
2022/10/09 00:12:54;;;;;;;872.08;810.55;;;;;;;10.70;69.71;101951.59;698392;28;22185;-62
2022/10/09 00:13:15;;;;;;;872.85;811.47;;;;;;;10.68;69.91;101950.91;697472;28;46190;-62
2022/10/09 00:13:37;;;;;;;871.80;810.40;;;;;;;10.69;69.96;101953.47;697195;28;45464;-62
2022/10/09 00:13:59;;;;;;;886.22;824.42;;;;;;;10.68;69.96;101956.31;698170;28;22688;-61
2022/10/09 00:14:21;;;;;;;870.92;809.45;;;;;;;10.68;70.06;101951.75;697218;28;45034;-61
2022/10/09 00:14:42;;;;;;;880.08;818.25;;;;;;;10.69;70.13;101948.06;696471;28;68970;-62
2022/10/09 00:15:05;;;;;;;881.72;819.95;;;;;;;10.69;70.16;101948.06;698196;28;23204;-61
2022/10/09 00:15:26;;;;;;;884.95;823.10;;;;;;;10.70;70.12;101955.16;696277;28;46091;-61
2022/10/09 00:15:47;;;;;;;893.50;831.42;;;;;;;10.70;69.99;101957.00;695627;28;22603;-62
2022/10/09 00:16:10;;;;;;;876.97;815.45;;;;;;;10.69;70.24;101955.28;694636;28;46037;-61
2022/10/09 00:16:32;;;;;;;877.25;815.70;;;;;;;10.68;69.94;101959.84;694761;28;45104;-61
2022/10/09 00:16:54;;;;;;;885.83;824.10;;;;;;;10.69;69.96;101958.00;693680;28;67915;-62
2022/10/09 00:17:15;;;;;;;876.95;815.22;;;;;;;10.69;70.21;101956.16;698094;28;22620;-62
2022/10/09 00:17:37;;;;;;;875.85;814.25;;;;;;;10.69;70.22;101952.59;697954;28;22539;-61
2022/10/09 00:17:58;;;;;;;883.60;821.83;;;;;;;10.69;70.29;101961.56;698228;28;22916;-60
2022/10/09 00:18:20;;;;;;;885.63;823.65;;;;;;;10.70;70.20;101959.72;697214;28;45048;-61
2022/10/09 00:18:42;;;;;;;881.10;819.30;;;;;;;10.70;70.23;101960.56;696868;28;45479;-62
2022/10/09 00:19:03;;;;;;;878.45;816.72;;;;;;;10.71;70.02;101956.88;698272;28;22187;-61
2022/10/09 00:19:24;;;;;;;874.38;812.83;;;;;;;10.71;69.99;101962.25;697442;28;46307;-61
2022/10/09 00:19:46;;;;;;;869.83;808.50;;;;;;;10.71;69.92;101962.25;698135;28;24276;-61
2022/10/09 00:20:09;;;;;;;873.40;812.00;;;;;;;10.70;70.19;101960.56;697558;28;46048;-62
2022/10/09 00:20:30;;;;;;;865.80;804.42;;;;;;;10.71;70.32;101961.44;696492;28;68294;-61
2022/10/09 00:20:51;;;;;;;866.55;805.25;;;;;;;10.72;70.20;101963.09;698185;28;22488;-61
2022/10/09 00:21:18;;;;;;;864.08;802.83;;;;;;;10.71;70.13;101954.16;698281;28;22604;-61
2022/10/09 00:21:40;;;;;;;871.10;809.63;;;;;;;10.71;70.11;101959.56;694328;28;136901;-62
2022/10/09 00:22:01;;;;;;;878.97;817.28;;;;;;;10.73;70.10;101964.81;697125;28;46087;-62
2022/10/09 00:22:23;;;;;;;880.45;818.72;;;;;;;10.72;69.80;101963.97;698168;28;23202;-61
2022/10/09 00:22:44;;;;;;;880.78;818.97;;;;;;;10.71;69.72;101964.97;697495;28;45103;-61
2022/10/09 00:23:06;;;;;;;874.30;812.70;;;;;;;10.72;70.10;101965.81;698281;28;22608;-62
2022/10/09 00:23:28;;;;;;;876.97;815.33;;;;;;;10.71;70.00;101962.25;696416;28;45909;-62
2022/10/09 00:23:51;;;;;;;875.17;813.70;;;;;;;10.71;70.06;101967.66;694749;28;47073;-61
2022/10/09 00:24:12;;;;;;;874.17;812.47;;;;;;;10.71;69.67;101966.81;693527;28;70289;-62
2022/10/09 00:24:35;;;;;;;869.90;808.33;;;;;;;10.70;69.73;101963.25;695355;28;22903;-61
2022/10/09 00:24:56;;;;;;;862.22;801.05;;;;;;;10.69;69.81;101961.56;695172;28;68888;-62
2022/10/09 00:25:24;;;;;;;877.63;816.13;;;;;;;10.70;69.70;101965.97;694148;28;136826;-62
2022/10/09 00:25:52;;;;;;;877.17;815.78;;;;;;;10.69;69.87;101966.97;696629;28;68975;-62
2022/10/09 00:26:15;;;;;;;874.00;812.58;;;;;;;10.68;69.74;101965.25;693447;28;160500;-62
2022/10/09 00:26:37;;;;;;;867.90;806.53;;;;;;;10.69;69.78;101963.41;695672;28;92253;-62
2022/10/09 00:26:59;;;;;;;867.00;805.40;;;;;;;10.69;70.08;101963.41;694989;28;22538;-62
2022/10/09 00:27:21;;;;;;;882.80;820.63;;;;;;;10.69;69.75;101963.41;694245;28;45605;-62
2022/10/09 00:27:43;;;;;;;877.35;815.72;;;;;;;10.68;70.18;101959.84;691191;28;69011;-60
2022/10/09 00:28:04;;;;;;;870.42;809.03;;;;;;;10.68;69.79;101965.25;689479;28;22614;-62
2022/10/09 00:28:27;;;;;;;871.22;809.65;;;;;;;10.68;70.02;101967.97;689676;28;45598;-61
2022/10/09 00:28:49;;;;;;;878.10;816.42;;;;;;;10.67;69.66;101965.41;688004;28;68055;-61
2022/10/09 00:29:11;;;;;;;868.72;807.35;;;;;;;10.66;69.82;101964.56;690036;28;45497;-62
2022/10/09 00:29:32;;;;;;;871.15;809.65;;;;;;;10.66;70.10;101961.88;692602;28;22607;-61
2022/10/09 00:29:53;;;;;;;864.33;803.03;;;;;;;10.65;70.18;101970.97;692424;28;46208;-61
2022/10/09 00:30:16;;;;;;;874.03;812.40;;;;;;;10.66;69.72;101969.09;695234;28;23637;-62
2022/10/09 00:30:38;;;;;;;871.85;810.35;;;;;;;10.66;70.08;101969.09;693771;28;68929;-62
2022/10/09 00:31:02;;;;;;;874.47;812.95;;;;;;;10.66;69.90;101969.97;694665;28;46024;-62
2022/10/09 00:31:24;;;;;;;867.78;806.33;;;;;;;10.66;69.73;101972.69;693121;28;90892;-61
2022/10/09 00:31:46;;;;;;;854.75;793.85;;;;;;;10.66;69.69;101967.28;695578;28;24455;-62
2022/10/09 00:32:07;;;;;;;870.08;808.60;;;;;;;10.67;70.10;101968.13;694515;28;46085;-59
2022/10/09 00:32:29;;;;;;;871.92;810.33;;;;;;;10.66;70.07;101966.41;695259;28;23201;-61
2022/10/09 00:32:50;;;;;;;882.63;820.83;;;;;;;10.66;69.71;101967.28;694494;28;45077;-62
2022/10/09 00:33:12;;;;;;;870.53;809.15;;;;;;;10.66;70.15;101974.50;695520;28;22557;-61
2022/10/09 00:33:35;;;;;;;874.38;812.90;;;;;;;10.66;69.65;101966.41;694330;28;45488;-61
2022/10/09 00:33:56;;;;;;;869.88;808.53;;;;;;;10.66;69.72;101969.97;695190;28;68298;-62
2022/10/09 00:34:17;;;;;;;869.20;807.95;;;;;;;10.66;70.04;101974.50;697997;28;22527;-61
2022/10/09 00:34:39;;;;;;;881.70;820.03;;;;;;;10.66;70.08;101978.06;698108;28;22246;-60
2022/10/09 00:35:01;;;;;;;866.33;805.03;;;;;;;10.66;69.86;101974.50;697102;28;46059;-65
2022/10/09 00:35:22;;;;;;;862.65;801.40;;;;;;;10.66;69.65;101971.81;697217;28;45468;-62
2022/10/09 00:35:44;;;;;;;857.00;795.92;;;;;;;10.66;69.94;101977.22;698159;28;22625;-61
2022/10/09 00:36:08;;;;;;;858.13;797.05;;;;;;;10.65;69.79;101976.38;697467;28;45433;-62
2022/10/09 00:36:30;;;;;;;876.80;815.17;;;;;;;10.64;69.57;101980.06;693974;28;92190;-60
2022/10/09 00:36:51;;;;;;;871.72;810.30;;;;;;;10.64;69.76;101971.94;694860;28;45932;-62
2022/10/09 00:37:13;;;;;;;868.35;806.97;;;;;;;10.64;69.46;101980.06;695210;28;22604;-62
2022/10/09 00:37:34;;;;;;;869.75;808.30;;;;;;;10.63;69.87;101975.66;694659;28;46087;-62
2022/10/09 00:37:56;;;;;;;871.45;810.03;;;;;;;10.62;69.93;101974.78;695603;28;22203;-62
2022/10/09 00:38:17;;;;;;;876.55;814.95;;;;;;;10.63;69.58;101983.78;694661;28;46092;-61
2022/10/09 00:38:39;;;;;;;878.33;816.63;;;;;;;10.61;69.87;101981.22;694209;28;46032;-62
2022/10/09 00:39:00;;;;;;;869.17;807.63;;;;;;;10.61;69.57;101986.63;695376;28;22629;-62
2022/10/09 00:39:21;;;;;;;863.47;802.15;;;;;;;10.61;69.54;101974.94;695484;28;23337;-61
2022/10/09 00:39:45;;;;;;;872.00;810.47;;;;;;;10.59;69.59;101979.66;695221;28;46020;-59
2022/10/09 00:40:07;;;;;;;875.92;814.33;;;;;;;10.60;69.99;101978.66;693849;28;67860;-62
2022/10/09 00:40:28;;;;;;;883.85;821.97;;;;;;;10.59;69.76;101982.34;694610;28;45998;-62
2022/10/09 00:40:51;;;;;;;884.25;822.40;;;;;;;10.59;69.64;101983.19;694735;28;46062;-62
2022/10/09 00:41:14;;;;;;;882.05;820.28;;;;;;;10.58;69.64;101980.63;694526;28;45070;-61
2022/10/09 00:41:36;;;;;;;893.33;831.23;;;;;;;10.57;69.90;101979.81;693196;28;91969;-62
2022/10/09 00:41:57;;;;;;;880.35;818.72;;;;;;;10.57;69.67;101981.66;693868;28;67908;-62
2022/10/09 00:42:20;;;;;;;872.03;810.67;;;;;;;10.58;69.77;101980.63;695385;28;22601;-62
2022/10/09 00:42:44;;;;;;;886.05;824.22;;;;;;;10.58;69.61;101973.41;694716;28;46061;-61
2022/10/09 00:43:09;;;;;;;881.08;819.38;;;;;;;10.58;69.55;101986.03;692294;28;115079;-62
2022/10/09 00:43:43;;;;;;;876.92;815.22;;;;;;;10.57;69.85;101984.38;691840;28;114770;-62
2022/10/09 00:44:38;;;;;;;870.13;808.67;;;;;;;10.56;70.02;101982.66;691467;28;137314;-62
2022/10/09 00:45:02;;;;;;;879.95;818.22;;;;;;;10.55;69.61;101980.94;691311;28;136719;-61
2022/10/09 00:45:24;;;;;;;890.05;827.95;;;;;;;10.54;69.78;101979.25;692949;28;91871;-62
2022/10/09 00:45:49;;;;;;;872.05;810.53;;;;;;;10.54;69.91;101976.56;694818;28;46058;-61
2022/10/09 00:46:23;;;;;;;872.67;811.03;;;;;;;10.54;69.74;101976.56;692269;28;115583;-62
2022/10/09 00:46:48;;;;;;;873.92;812.42;;;;;;;10.51;69.94;101982.25;691455;28;137169;-62
2022/10/09 00:47:13;;;;;;;872.00;810.15;;;;;;;10.51;69.78;101983.09;691622;28;114733;-62
2022/10/09 00:47:37;;;;;;;884.20;822.15;;;;;;;10.52;69.65;101973.16;691290;28;137837;-61
2022/10/09 00:48:00;;;;;;;886.30;824.40;;;;;;;10.51;69.78;101976.84;693952;28;68864;-61
2022/10/09 00:48:22;;;;;;;885.45;823.55;;;;;;;10.50;69.64;101975.13;692756;28;92116;-62
2022/10/09 00:48:45;;;;;;;873.03;811.53;;;;;;;10.49;69.88;101985.09;694807;28;22646;-62
2022/10/09 00:49:14;;;;;;;877.28;815.63;;;;;;;10.49;70.03;101976.16;693478;28;67928;-60
2022/10/09 00:49:35;;;;;;;878.72;816.85;;;;;;;10.50;69.99;101983.22;690998;28;137947;-61
2022/10/09 00:50:01;;;;;;;876.03;814.50;;;;;;;10.49;70.08;101978.84;694528;28;45068;-62
2022/10/09 00:50:24;;;;;;;878.38;816.80;;;;;;;10.49;69.69;101981.53;692121;28;114779;-61
2022/10/09 00:50:48;;;;;;;881.55;819.80;;;;;;;10.48;69.65;101987.94;693797;28;68889;-62
2022/10/09 00:51:10;;;;;;;873.70;812.17;;;;;;;10.47;69.93;101989.78;692284;28;114763;-62
2022/10/09 00:51:34;;;;;;;860.58;799.28;;;;;;;10.46;69.72;101996.19;695406;28;22583;-60
2022/10/09 00:51:58;;;;;;;884.30;822.22;;;;;;;10.45;69.78;101991.78;693004;28;91893;-62
2022/10/09 00:52:20;;;;;;;882.53;820.35;;;;;;;10.45;70.20;101986.38;692997;28;91896;-61
2022/10/09 00:52:42;;;;;;;877.90;815.83;;;;;;;10.44;70.23;101993.63;693285;28;69122;-62
2022/10/09 00:53:05;;;;;;;877.40;815.40;;;;;;;10.44;70.04;101995.50;694277;28;46145;-61
2022/10/09 00:53:28;;;;;;;858.22;797.00;;;;;;;10.43;70.20;101994.63;693757;28;45761;-62
2022/10/09 00:53:49;;;;;;;880.60;818.88;;;;;;;10.43;70.07;101996.47;693546;28;68894;-61
2022/10/09 00:54:12;;;;;;;882.15;820.33;;;;;;;10.40;70.15;101985.97;694499;28;45878;-62
2022/10/09 00:54:46;;;;;;;882.67;820.70;;;;;;;10.42;70.17;101995.63;692953;28;97027;-60
2022/10/09 00:55:08;;;;;;;876.30;814.55;;;;;;;10.43;69.92;101993.78;695674;28;93605;-62
2022/10/09 00:55:30;;;;;;;873.70;812.10;;;;;;;10.42;70.14;101997.47;698162;28;23090;-62
2022/10/09 00:55:52;;;;;;;871.30;809.80;;;;;;;10.44;70.05;101995.50;696455;28;67883;-62
2022/10/09 00:56:13;;;;;;;881.08;819.28;;;;;;;10.43;70.29;101996.47;694660;28;45446;-61
2022/10/09 00:56:35;;;;;;;878.33;816.58;;;;;;;10.42;69.93;101995.63;695380;28;22183;-62
2022/10/09 00:56:57;;;;;;;871.13;809.45;;;;;;;10.38;70.30;101994.22;694134;28;45462;-61
2022/10/09 00:57:18;;;;;;;887.25;824.88;;;;;;;10.42;69.98;102001.03;694332;28;46048;-62
2022/10/09 00:57:40;;;;;;;879.45;817.70;;;;;;;10.41;70.00;101999.31;695373;28;22650;-61
2022/10/09 00:58:03;;;;;;;882.80;821.08;;;;;;;10.41;70.12;101993.91;694761;28;45509;-61
2022/10/09 00:58:25;;;;;;;876.80;815.25;;;;;;;10.42;70.00;101997.47;696234;28;68903;-62
2022/10/09 00:58:49;;;;;;;882.60;820.80;;;;;;;10.41;70.20;101995.78;697446;28;44993;-61
2022/10/09 00:59:11;;;;;;;874.85;813.25;;;;;;;10.41;69.90;101993.06;695704;28;91965;-61
2022/10/09 00:59:32;;;;;;;876.10;814.47;;;;;;;10.40;69.91;101994.91;697323;28;46167;-62
2022/10/09 00:59:55;;;;;;;873.40;811.80;;;;;;;10.40;70.17;102002.16;697265;28;45447;-61
2022/10/09 01:00:18;;;;;;;874.88;813.22;;;;;;;10.39;70.42;101995.06;695505;28;93254;-61
2022/10/09 01:00:39;;;;;;;875.40;813.70;;;;;;;10.39;70.15;102006.72;698089;28;22227;-62
2022/10/09 01:01:01;;;;;;;877.67;816.03;;;;;;;10.38;70.30;101998.75;695456;28;45900;-61
2022/10/09 01:01:23;;;;;;;876.13;814.45;;;;;;;10.37;70.23;101997.06;695239;28;22196;-61
2022/10/09 01:01:45;;;;;;;871.30;809.72;;;;;;;10.37;70.03;102000.59;693879;28;67808;-62
2022/10/09 01:02:06;;;;;;;876.53;814.83;;;;;;;10.37;70.09;101999.75;695039;28;22645;-62
2022/10/09 01:02:27;;;;;;;882.45;820.55;;;;;;;10.36;70.24;101998.03;696095;28;45055;-61
2022/10/09 01:02:55;;;;;;;892.40;830.30;;;;;;;10.36;70.44;101995.34;694240;28;138688;-62
2022/10/09 01:03:16;;;;;;;879.30;817.58;;;;;;;10.35;70.09;101996.34;697336;28;46119;-61
2022/10/09 01:03:39;;;;;;;876.03;814.33;;;;;;;10.36;70.50;101992.63;697858;28;22292;-61
2022/10/09 01:04:01;;;;;;;873.00;811.38;;;;;;;10.35;70.38;101997.19;696925;28;45079;-62
2022/10/09 01:04:24;;;;;;;863.65;802.35;;;;;;;10.35;70.54;101993.66;690713;28;66738;-62
2022/10/09 01:04:45;;;;;;;845.00;784.40;;;;;;;10.35;70.33;101997.19;691858;28;42652;-62
2022/10/09 01:05:07;;;;;;;838.45;778.17;;;;;;;10.35;70.24;101988.25;691704;28;46054;-62
2022/10/09 01:05:39;;;;;;;847.17;786.58;;;;;;;10.35;70.42;101994.50;688555;28;45458;-62
2022/10/09 01:06:08;;;;;;;842.83;782.28;;;;;;;10.35;70.58;101999.06;688251;28;137356;-61
2022/10/09 01:06:45;;;;;;;855.55;793.83;;;;;;;10.35;70.49;101999.91;689466;28;136546;-61
2022/10/09 01:07:25;;;;;;;867.10;805.53;;;;;;;10.34;70.07;102000.03;693396;28;137305;-61
2022/10/09 01:07:50;;;;;;;878.42;816.72;;;;;;;10.33;70.19;101993.81;691364;28;137157;-61
2022/10/09 01:08:16;;;;;;;873.25;811.65;;;;;;;10.32;70.21;102002.84;693812;28;114656;-61
2022/10/09 01:08:43;;;;;;;878.25;816.38;;;;;;;10.33;70.42;102001.03;690025;28;161196;-60
2022/10/09 01:09:06;;;;;;;862.33;801.22;;;;;;;10.30;70.21;102002.16;691194;28;137949;-60
2022/10/09 01:09:35;;;;;;;856.45;795.40;;;;;;;10.31;70.23;101995.75;693578;28;68936;-61
2022/10/09 01:10:02;;;;;;;853.08;792.20;;;;;;;10.30;70.43;102002.16;691293;28;137312;-62
2022/10/09 01:10:29;;;;;;;872.42;810.90;;;;;;;10.29;70.18;101997.75;690989;28;137764;-61
2022/10/09 01:10:59;;;;;;;869.83;808.47;;;;;;;10.29;70.42;101997.75;691493;28;137821;-61
2022/10/09 01:11:32;;;;;;;863.80;802.47;;;;;;;10.28;70.39;101999.59;690393;28;160510;-61
2022/10/09 01:11:56;;;;;;;871.40;809.90;;;;;;;10.28;70.31;101996.91;691280;28;137343;-62
2022/10/09 01:12:21;;;;;;;881.55;819.63;;;;;;;10.27;70.63;102002.44;692882;28;91064;-61
2022/10/09 01:12:47;;;;;;;880.35;818.60;;;;;;;10.27;70.29;101999.75;692078;28;114997;-61
2022/10/09 01:13:14;;;;;;;883.53;821.72;;;;;;;10.26;70.70;101996.16;691398;28;137521;-61
2022/10/09 01:13:38;;;;;;;874.63;813.15;;;;;;;10.26;70.33;101998.03;690843;28;137610;-62
2022/10/09 01:14:04;;;;;;;875.65;814.10;;;;;;;10.25;70.71;102002.59;693021;28;91880;-61
2022/10/09 01:14:28;;;;;;;880.53;818.45;;;;;;;10.26;70.65;102000.72;691260;28;137674;-61
2022/10/09 01:14:57;;;;;;;879.65;817.92;;;;;;;10.26;70.55;102003.44;692920;28;91874;-61
2022/10/09 01:15:23;;;;;;;868.00;806.53;;;;;;;10.25;70.41;102002.59;691327;28;137350;-61
2022/10/09 01:15:48;;;;;;;879.97;818.22;;;;;;;10.25;70.38;102005.28;692515;28;114726;-61
2022/10/09 01:16:15;;;;;;;877.22;815.50;;;;;;;10.26;70.70;102003.44;692445;28;137655;-61
2022/10/09 01:16:41;;;;;;;871.78;810.20;;;;;;;10.27;70.54;102005.16;691881;28;138118;-60
2022/10/09 01:17:07;;;;;;;869.20;807.53;;;;;;;10.25;70.59;102005.28;690846;28;138016;-61
2022/10/09 01:17:33;;;;;;;878.05;816.25;;;;;;;10.27;70.66;102005.16;691216;28;137684;-61
2022/10/09 01:17:59;;;;;;;878.45;816.78;;;;;;;10.26;70.65;102009.66;691312;28;137564;-61
2022/10/09 01:18:24;;;;;;;874.63;813.00;;;;;;;10.27;70.71;102005.97;691226;28;137799;-59
2022/10/09 01:18:49;;;;;;;879.80;818.00;;;;;;;10.28;70.78;102009.53;691391;28;136095;-60
2022/10/09 01:19:19;;;;;;;883.45;821.58;;;;;;;10.28;70.81;102006.81;692256;28;114722;-59
2022/10/09 01:19:50;;;;;;;878.72;817.13;;;;;;;10.28;70.56;102004.13;691461;28;136861;-61
2022/10/09 01:20:24;;;;;;;873.55;811.90;;;;;;;10.24;70.78;102003.56;691429;28;137655;-60
2022/10/09 01:20:48;;;;;;;880.97;819.17;;;;;;;10.28;70.39;102006.81;691406;28;137304;-61
2022/10/09 01:21:14;;;;;;;879.30;817.67;;;;;;;10.28;70.45;102004.13;693058;28;90190;-61
2022/10/09 01:21:39;;;;;;;865.85;804.60;;;;;;;10.28;70.60;102012.22;692074;28;114140;-60
2022/10/09 01:22:13;;;;;;;873.97;812.55;;;;;;;10.27;70.46;102007.84;691316;28;139147;-61
2022/10/09 01:22:44;;;;;;;884.30;822.35;;;;;;;10.27;70.46;102010.53;691291;28;137307;-59
2022/10/09 01:23:56;;;;;;;886.95;824.95;;;;;;;10.26;70.72;102014.22;691397;28;136570;-61
2022/10/09 01:24:24;;;;;;;872.20;810.72;;;;;;;10.26;70.35;102011.53;687485;28;157571;-61
2022/10/09 01:24:47;;;;;;;874.60;813.00;;;;;;;10.25;70.62;102013.38;688310;28;136996;-61
2022/10/09 01:25:17;;;;;;;879.38;817.65;;;;;;;10.25;70.54;102013.38;688013;28;68003;-61
2022/10/09 01:25:46;;;;;;;892.15;829.88;;;;;;;10.25;70.81;102009.81;689559;28;137593;-61
2022/10/09 01:26:26;;;;;;;881.35;819.47;;;;;;;10.24;70.96;102014.38;690586;28;160416;-61
2022/10/09 01:26:59;;;;;;;885.83;823.78;;;;;;;10.23;70.39;102009.97;691185;28;138447;-61
2022/10/09 01:27:23;;;;;;;877.85;816.03;;;;;;;10.23;70.86;102014.50;690982;28;136587;-61
2022/10/09 01:27:45;;;;;;;889.38;827.33;;;;;;;10.23;70.43;102017.22;692671;28;92063;-61
2022/10/09 01:28:08;;;;;;;877.38;815.70;;;;;;;10.22;70.75;102010.97;694681;28;45067;-61
2022/10/09 01:28:30;;;;;;;884.92;822.92;;;;;;;10.22;70.50;102018.19;693241;28;67813;-61
2022/10/09 01:28:53;;;;;;;886.92;825.03;;;;;;;10.21;70.69;102014.66;694649;28;46057;-61
2022/10/09 01:29:18;;;;;;;887.88;826.00;;;;;;;10.21;70.74;102008.41;693632;28;69194;-61
2022/10/09 01:29:42;;;;;;;886.03;824.22;;;;;;;10.20;70.34;102015.69;692230;28;115345;-60
2022/10/09 01:30:06;;;;;;;876.22;814.60;;;;;;;10.19;70.55;102011.25;692832;28;91876;-61
2022/10/09 01:30:29;;;;;;;870.75;809.25;;;;;;;10.20;70.74;102022.91;692920;28;91828;-59
2022/10/09 01:30:51;;;;;;;865.40;804.08;;;;;;;10.18;70.40;102016.81;693912;28;68971;-61
2022/10/09 01:31:12;;;;;;;871.08;809.53;;;;;;;10.19;70.94;102018.50;694488;28;45035;-60
2022/10/09 01:31:36;;;;;;;887.15;825.13;;;;;;;10.19;70.64;102019.34;694472;28;46035;-61
2022/10/09 01:31:59;;;;;;;869.67;808.13;;;;;;;10.18;70.84;102023.03;692224;28;114112;-60
2022/10/09 01:32:23;;;;;;;865.38;804.00;;;;;;;10.19;70.50;102018.50;695191;28;22223;-60
2022/10/09 01:32:48;;;;;;;860.60;799.38;;;;;;;10.19;70.91;102022.06;692948;28;91869;-61
2022/10/09 01:33:10;;;;;;;866.83;805.45;;;;;;;10.20;70.93;102017.50;692789;28;92190;-61
2022/10/09 01:33:32;;;;;;;878.08;816.20;;;;;;;10.18;70.52;102014.09;693937;28;44808;-61
2022/10/09 01:33:53;;;;;;;883.03;821.13;;;;;;;10.18;70.87;102016.81;694699;28;46050;-61
2022/10/09 01:34:17;;;;;;;894.08;831.75;;;;;;;10.18;70.83;102027.59;694561;28;46053;-60
2022/10/09 01:34:40;;;;;;;874.13;812.45;;;;;;;10.18;70.79;102022.19;692971;28;91915;-61
2022/10/09 01:35:04;;;;;;;865.45;804.10;;;;;;;10.16;71.00;102018.81;693804;28;68918;-61
2022/10/09 01:35:27;;;;;;;885.90;823.90;;;;;;;10.18;70.40;102017.66;692837;28;91997;-61
2022/10/09 01:35:48;;;;;;;872.38;810.83;;;;;;;10.18;70.72;102019.50;694585;28;46060;-61
2022/10/09 01:36:10;;;;;;;871.47;809.97;;;;;;;10.17;70.69;102018.66;694712;28;46052;-61
2022/10/09 01:36:32;;;;;;;869.67;808.28;;;;;;;10.16;70.77;102014.25;694576;28;46210;-60
2022/10/09 01:36:55;;;;;;;854.40;793.55;;;;;;;10.16;70.58;102021.50;694967;28;23542;-61
2022/10/09 01:37:18;;;;;;;869.72;808.15;;;;;;;10.15;70.46;102023.31;694359;28;45059;-61
2022/10/09 01:37:41;;;;;;;873.22;811.60;;;;;;;10.16;70.42;102021.50;692995;28;92318;-61
2022/10/09 01:38:03;;;;;;;866.22;804.80;;;;;;;10.15;70.36;102017.09;693805;28;70071;-61
2022/10/09 01:38:26;;;;;;;853.10;791.95;;;;;;;10.16;70.63;102021.50;695404;28;46062;-62
2022/10/09 01:38:48;;;;;;;857.65;796.45;;;;;;;10.14;70.87;102021.66;696585;28;68924;-61
2022/10/09 01:39:13;;;;;;;879.88;818.10;;;;;;;10.14;70.73;102023.47;697423;28;45487;-61
2022/10/09 01:39:34;;;;;;;868.92;807.35;;;;;;;10.13;70.46;102019.09;694367;28;114164;-60
2022/10/09 01:39:58;;;;;;;864.08;802.78;;;;;;;10.13;70.54;102019.09;698194;28;22251;-61
2022/10/09 01:40:20;;;;;;;871.15;809.58;;;;;;;10.13;70.88;102017.22;695688;28;91901;-60
2022/10/09 01:40:42;;;;;;;878.63;816.80;;;;;;;10.12;70.79;102030.88;697031;28;45185;-62
2022/10/09 01:41:04;;;;;;;882.22;820.33;;;;;;;10.12;70.62;102020.06;697380;28;45456;-61
2022/10/09 01:41:26;;;;;;;887.63;825.53;;;;;;;10.12;70.93;102020.06;696988;28;46052;-61
2022/10/09 01:41:49;;;;;;;872.53;810.90;;;;;;;10.12;70.90;102020.91;693625;28;68922;-60
2022/10/09 01:42:12;;;;;;;887.97;825.92;;;;;;;10.10;70.50;102023.75;694353;28;46056;-60
2022/10/09 01:42:42;;;;;;;847.08;786.20;;;;;;;10.12;70.73;102025.47;691420;28;137334;-61
2022/10/09 01:43:05;;;;;;;866.42;805.03;;;;;;;10.12;70.52;102022.78;695490;28;22255;-61
2022/10/09 01:43:26;;;;;;;872.03;810.42;;;;;;;10.12;70.83;102022.78;694077;28;45073;-61
2022/10/09 01:43:47;;;;;;;872.38;810.78;;;;;;;10.11;70.98;102032.72;695358;28;23229;-61
2022/10/09 01:44:16;;;;;;;838.58;778.22;;;;;;;10.11;71.01;102032.72;695354;28;23222;-61
2022/10/09 01:44:38;;;;;;;817.42;757.75;;;;;;;10.12;70.95;102026.31;691434;28;137693;-61
2022/10/09 01:44:59;;;;;;;832.33;771.97;;;;;;;10.11;70.63;102030.03;693666;28;69063;-61
2022/10/09 01:45:21;;;;;;;852.10;791.10;;;;;;;10.11;70.91;102032.72;695429;28;22616;-62
2022/10/09 01:45:43;;;;;;;858.70;797.55;;;;;;;10.08;70.89;102031.16;695220;28;23256;-61
2022/10/09 01:46:21;;;;;;;853.20;792.25;;;;;;;10.07;70.69;102036.69;693790;28;68893;-61
2022/10/09 01:46:44;;;;;;;849.60;788.63;;;;;;;10.06;70.94;102033.16;691496;28;137299;-59
2022/10/09 01:47:05;;;;;;;895.88;833.33;;;;;;;10.05;71.04;102031.44;693644;28;45197;-61